createdAt,value
2022-11-11T00:01:15.549Z,23.67
2022-11-11T00:04:00.930Z,26.63
2022-11-11T00:06:47.663Z,22.55
2022-11-11T00:09:33.285Z,23.77
2022-11-11T00:12:19.191Z,26.08
2022-11-11T00:15:05.483Z,24.42
2022-11-11T00:18:09.259Z,28.40
2022-11-11T00:21:12.952Z,26.70
2022-11-11T00:24:16.961Z,27.27
2022-11-11T00:27:03.181Z,26.40
2022-11-11T00:29:48.401Z,28.98
2022-11-11T00:32:34.067Z,28.90
2022-11-11T00:35:38.095Z,26.83
2022-11-11T00:38:42.387Z,26.17
2022-11-11T00:41:27.832Z,27.27
2022-11-11T00:44:13.539Z,24.35
2022-11-11T00:47:17.495Z,27.88
2022-11-11T00:50:26.500Z,25.75
2022-11-11T00:53:14.486Z,25.25
2022-11-11T00:56:00.132Z,28.88
2022-11-11T00:58:45.603Z,29.88
2022-11-11T01:01:31.241Z,26.85
2022-11-11T01:04:17.145Z,28.85
2022-11-11T01:07:02.690Z,30.70
2022-11-11T01:09:48.108Z,29.65
2022-11-11T01:12:33.534Z,28.58
2022-11-11T01:15:19.113Z,29.88
2022-11-11T01:18:05.201Z,29.05
2022-11-11T01:21:05.759Z,29.17
2022-11-11T01:23:53.430Z,30.50
2022-11-11T01:26:38.793Z,32.08
2022-11-11T01:29:24.171Z,28.35
2022-11-11T01:32:09.590Z,31.02
2022-11-11T01:34:54.961Z,33.38
2022-11-11T01:37:40.252Z,29.88
2022-11-11T01:40:25.882Z,32.35
2022-11-11T01:43:11.377Z,26.55
2022-11-11T01:46:03.720Z,28.80
2022-11-11T01:49:12.496Z,32.42
2022-11-11T01:52:22.960Z,27.73
2022-11-11T01:55:15.451Z,28.35
2022-11-11T01:58:06.298Z,29.63
2022-11-11T02:00:51.744Z,27.50
2022-11-11T02:03:40.859Z,27.63
2022-11-11T02:06:28.586Z,27.48
2022-11-11T02:09:14.325Z,29.65
2022-11-11T02:12:24.337Z,26.83
2022-11-11T02:15:10.125Z,28.33
2022-11-11T02:17:55.327Z,26.75
2022-11-11T02:20:45.183Z,29.73
2022-11-11T02:26:19.896Z,29.35
2022-11-11T02:29:12.694Z,31.38
2022-11-11T02:31:58.521Z,34.28
2022-11-11T02:34:44.233Z,33.95
2022-11-11T02:37:29.785Z,31.75
2022-11-11T02:40:23.660Z,30.40
2022-11-11T02:43:09.081Z,30.50
2022-11-11T02:45:54.730Z,30.88
2022-11-11T02:48:40.575Z,35.53
2022-11-11T02:51:25.879Z,29.42
2022-11-11T02:54:11.564Z,32.10
2022-11-11T02:57:09.425Z,32.83
2022-11-11T02:59:57.866Z,38.35
2022-11-11T03:02:43.577Z,31.48
2022-11-11T03:05:29.016Z,33.90
2022-11-11T03:08:14.240Z,33.40
2022-11-11T03:10:59.344Z,38.83
2022-11-11T03:13:44.982Z,36.35
2022-11-11T03:16:49.311Z,35.35
2022-11-11T03:19:35.545Z,34.65
2022-11-11T03:25:38.690Z,38.90
2022-11-11T03:28:27.062Z,31.63
2022-11-11T03:31:12.333Z,33.70
2022-11-11T03:34:17.772Z,32.05
2022-11-11T03:37:25.728Z,32.42
2022-11-11T03:40:11.538Z,30.55
2022-11-11T03:43:03.873Z,31.70
2022-11-11T03:45:51.311Z,29.52
2022-11-11T03:48:37.045Z,32.38
2022-11-11T03:51:22.374Z,31.50
2022-11-11T03:54:07.753Z,33.63
2022-11-11T03:57:13.451Z,32.95
2022-11-11T03:59:58.693Z,52.00
2022-11-11T04:03:02.226Z,51.60
2022-11-11T04:06:05.734Z,35.63
2022-11-11T04:09:09.932Z,31.73
2022-11-11T04:11:55.011Z,31.20
2022-11-11T04:14:58.858Z,32.95
2022-11-11T04:17:44.788Z,31.90
2022-11-11T04:20:48.824Z,30.30
2022-11-11T04:23:33.903Z,31.73
2022-11-11T04:26:19.530Z,30.92
2022-11-11T04:29:23.858Z,36.47
2022-11-11T04:32:35.654Z,31.02
2022-11-11T04:35:21.242Z,30.88
2022-11-11T04:38:25.082Z,22.58
2022-11-11T04:41:11.302Z,24.42
2022-11-11T04:44:15.206Z,24.70
2022-11-11T04:47:00.467Z,24.05
2022-11-11T04:49:46.260Z,33.33
2022-11-11T04:52:32.095Z,30.10
2022-11-11T04:55:36.846Z,38.65
2022-11-11T04:58:25.155Z,28.73
2022-11-11T05:01:10.854Z,37.53
2022-11-11T05:03:56.173Z,57.67
2022-11-11T05:07:00.225Z,29.08
2022-11-11T05:09:45.731Z,36.88
2022-11-11T05:12:32.581Z,32.13
2022-11-11T05:15:36.339Z,42.10
2022-11-11T05:18:40.472Z,34.28
2022-11-11T05:21:28.255Z,23.38
2022-11-11T05:24:32.479Z,30.83
2022-11-11T05:27:18.227Z,31.35
2022-11-11T05:30:06.293Z,26.80
2022-11-11T05:32:52.180Z,27.98
2022-11-11T05:35:37.502Z,30.25
2022-11-11T05:38:23.061Z,26.60
2022-11-11T05:41:09.720Z,47.03
2022-11-11T05:43:54.910Z,62.20
2022-11-11T05:46:40.335Z,46.15
2022-11-11T05:49:26.228Z,82.70
2022-11-11T05:52:13.830Z,65.20
2022-11-11T05:54:59.460Z,51.17
2022-11-11T05:57:45.184Z,40.90
2022-11-11T06:00:30.334Z,76.53
2022-11-11T06:03:15.893Z,65.30
2022-11-11T06:06:01.315Z,48.85
2022-11-11T06:08:46.781Z,48.08
2022-11-11T06:11:33.177Z,43.10
2022-11-11T06:14:18.938Z,22.27
2022-11-11T06:17:04.456Z,28.65
2022-11-11T06:19:49.757Z,22.65
2022-11-11T06:22:56.032Z,18.48
2022-11-11T06:26:00.038Z,21.75
2022-11-11T06:28:47.292Z,21.85
2022-11-11T06:31:32.801Z,23.33
2022-11-11T06:34:18.235Z,20.17
2022-11-11T06:37:03.611Z,19.90
2022-11-11T06:39:48.974Z,26.02
2022-11-11T06:42:38.195Z,29.70
2022-11-11T06:45:28.439Z,22.27
2022-11-11T06:48:13.786Z,22.35
2022-11-11T06:51:05.093Z,50.20
2022-11-11T06:53:50.506Z,22.60
2022-11-11T06:56:35.741Z,27.38
2022-11-11T06:59:21.037Z,29.27
2022-11-11T07:02:06.743Z,30.90
2022-11-11T07:04:52.104Z,30.77
2022-11-11T07:07:37.337Z,31.38
2022-11-11T07:10:22.897Z,32.40
2022-11-11T07:13:08.641Z,35.80
2022-11-11T07:15:53.872Z,38.65
2022-11-11T07:18:39.233Z,53.55
2022-11-11T07:21:24.441Z,40.22
2022-11-11T07:24:09.979Z,49.22
2022-11-11T07:26:55.386Z,38.40
2022-11-11T07:29:40.826Z,41.33
2022-11-11T07:32:26.185Z,44.03
2022-11-11T07:35:11.638Z,42.55
2022-11-11T07:37:57.057Z,51.97
2022-11-11T07:40:42.373Z,47.03
2022-11-11T07:43:27.677Z,59.70
2022-11-11T07:46:13.035Z,49.92
2022-11-11T07:48:58.509Z,49.80
2022-11-11T07:51:43.883Z,56.72
2022-11-11T07:54:29.106Z,56.17
2022-11-11T07:57:14.764Z,49.50
2022-11-11T07:59:59.970Z,45.95
2022-11-11T08:02:49.354Z,60.30
2022-11-11T08:05:34.731Z,53.30
2022-11-11T08:08:25.706Z,42.45
2022-11-11T08:11:12.189Z,56.08
2022-11-11T08:13:57.790Z,136.88
2022-11-11T08:16:43.068Z,447.20
2022-11-11T08:19:28.474Z,125.68
2022-11-11T08:22:14.088Z,62.30
2022-11-11T08:25:04.406Z,58.05
2022-11-11T08:27:56.694Z,59.90
2022-11-11T08:30:42.450Z,57.17
2022-11-11T08:33:44.024Z,53.85
2022-11-11T08:36:29.834Z,44.20
2022-11-11T08:39:15.267Z,49.28
2022-11-11T08:42:00.685Z,42.38
2022-11-11T08:44:47.125Z,43.47
2022-11-11T08:47:32.552Z,46.42
2022-11-11T08:50:18.597Z,56.08
2022-11-11T08:53:04.154Z,46.67
2022-11-11T08:55:49.606Z,44.35
2022-11-11T08:58:35.378Z,39.33
2022-11-11T09:01:20.884Z,39.25
2022-11-11T09:04:30.079Z,40.88
2022-11-11T09:07:12.527Z,34.25
2022-11-11T09:09:57.732Z,42.83
2022-11-11T09:12:43.077Z,38.58
2022-11-11T09:15:29.593Z,58.08
2022-11-11T09:18:15.073Z,46.97
2022-11-11T09:21:00.901Z,61.42
2022-11-11T09:23:46.018Z,44.47
2022-11-11T09:26:31.424Z,35.90
2022-11-11T09:29:17.521Z,49.25
2022-11-11T09:32:03.057Z,44.85
2022-11-11T09:34:48.305Z,41.55
2022-11-11T09:37:33.750Z,47.20
2022-11-11T09:40:21.781Z,55.78
2022-11-11T09:43:33.132Z,39.63
2022-11-11T09:46:44.562Z,44.72
2022-11-11T09:49:42.400Z,44.35
2022-11-11T09:52:37.392Z,36.40
2022-11-11T09:55:38.670Z,39.67
2022-11-11T09:58:43.746Z,81.90
2022-11-11T10:01:36.753Z,40.72
2022-11-11T10:04:24.840Z,42.85
2022-11-11T10:07:18.408Z,75.63
2022-11-11T10:10:13.557Z,49.05
2022-11-11T10:12:59.913Z,31.10
2022-11-11T10:16:23.923Z,26.88
2022-11-11T10:19:15.650Z,19.92
2022-11-11T10:22:12.757Z,33.53
2022-11-11T10:25:21.073Z,8.20
2022-11-11T10:28:08.146Z,12.30
2022-11-11T10:30:55.657Z,13.25
2022-11-11T10:33:54.830Z,10.23
2022-11-11T10:36:46.405Z,22.33
2022-11-11T10:40:00.903Z,17.63
2022-11-11T10:42:46.037Z,9.52
2022-11-11T10:46:02.712Z,13.95
2022-11-11T10:48:57.392Z,150.68
2022-11-11T10:51:51.769Z,45.50
2022-11-11T10:54:55.264Z,140.65
2022-11-11T10:58:01.937Z,14.30
2022-11-11T11:00:50.510Z,8.63
2022-11-11T11:03:53.805Z,20.45
2022-11-11T11:06:44.352Z,8.40
2022-11-11T11:09:45.841Z,10.25
2022-11-11T11:12:47.169Z,9.60
2022-11-11T11:15:35.862Z,9.57
2022-11-11T11:18:21.423Z,3.15
2022-11-11T11:21:08.643Z,8.13
2022-11-11T11:23:53.924Z,14.13
2022-11-11T11:26:48.614Z,10.02
2022-11-11T11:29:43.122Z,13.05
2022-11-11T11:32:30.927Z,12.90
2022-11-11T11:35:37.784Z,8.00
2022-11-11T11:38:40.927Z,10.73
2022-11-11T11:41:50.286Z,8.10
2022-11-11T11:44:40.294Z,6.93
2022-11-11T11:53:57.163Z,7.93
2022-11-11T11:56:45.875Z,3.88
2022-11-11T11:59:49.724Z,4.00
2022-11-11T12:02:58.385Z,8.90
2022-11-11T12:05:50.682Z,6.38
2022-11-11T12:09:00.873Z,4.57
2022-11-11T12:11:46.274Z,4.60
2022-11-11T12:15:22.752Z,7.00
2022-11-11T12:18:33.582Z,4.22
2022-11-11T12:21:24.558Z,5.35
2022-11-11T12:24:10.033Z,3.20
2022-11-11T12:27:14.184Z,2.50
2022-11-11T12:30:14.305Z,5.22
2022-11-11T12:33:06.328Z,3.70
2022-11-11T12:36:17.907Z,6.78
2022-11-11T12:39:12.514Z,5.35
2022-11-11T12:42:26.782Z,3.90
2022-11-11T12:45:22.068Z,6.65
2022-11-11T12:48:32.749Z,3.50
2022-11-11T12:51:36.748Z,4.30
2022-11-11T12:54:43.514Z,7.88
2022-11-11T12:57:34.713Z,4.97
2022-11-11T13:00:22.214Z,5.28
2022-11-11T13:04:01.673Z,3.08
2022-11-11T13:07:04.347Z,4.82
2022-11-11T13:09:56.434Z,3.25
2022-11-11T13:12:55.481Z,3.45
2022-11-11T13:15:41.099Z,7.50
2022-11-11T13:19:12.101Z,2.72
2022-11-11T13:22:13.088Z,3.03
2022-11-11T13:25:04.238Z,3.40
2022-11-11T13:27:55.400Z,6.60
2022-11-11T13:30:53.010Z,5.25
2022-11-11T13:33:49.174Z,7.65
2022-11-11T13:39:34.572Z,6.05
2022-11-11T13:42:26.556Z,4.28
2022-11-11T13:45:26.870Z,3.60
2022-11-11T13:48:31.421Z,3.08
2022-11-11T13:51:19.928Z,4.82
2022-11-11T13:54:20.317Z,3.65
2022-11-11T13:57:15.529Z,4.47
2022-11-11T14:00:24.667Z,4.53
2022-11-11T14:03:22.880Z,13.32
2022-11-11T14:06:14.584Z,6.15
2022-11-11T14:09:00.302Z,3.75
2022-11-11T14:11:45.725Z,9.48
2022-11-11T14:14:37.231Z,11.18
2022-11-11T14:17:23.214Z,8.55
2022-11-11T14:20:42.074Z,7.03
2022-11-11T14:23:30.685Z,9.07
2022-11-11T14:26:24.382Z,3.22
2022-11-11T14:29:19.664Z,4.78
2022-11-11T14:32:14.202Z,7.75
2022-11-11T14:35:19.994Z,8.90
2022-11-11T14:38:28.359Z,9.25
2022-11-11T14:41:53.537Z,8.60
2022-11-11T14:44:41.154Z,11.05
2022-11-11T14:47:42.119Z,33.03
2022-11-11T14:50:33.324Z,8.32
2022-11-11T14:53:21.002Z,9.15
2022-11-11T14:56:16.592Z,7.47
2022-11-11T14:59:07.528Z,9.05
2022-11-11T15:01:55.239Z,24.83
2022-11-11T15:04:41.418Z,9.93
2022-11-11T15:08:05.566Z,5.32
2022-11-11T15:11:06.342Z,9.23
2022-11-11T15:14:19.073Z,27.45
2022-11-11T15:17:35.888Z,8.15
2022-11-11T15:20:52.906Z,13.10
2022-11-11T15:23:49.398Z,9.65
2022-11-11T15:27:00.925Z,16.08
2022-11-11T15:30:07.864Z,10.52
2022-11-11T15:33:12.159Z,7.28
2022-11-11T15:36:16.310Z,6.30
2022-11-11T15:39:13.071Z,13.40
2022-11-11T15:41:58.832Z,8.05
2022-11-11T15:44:44.678Z,5.18
2022-11-11T15:47:35.787Z,3.70
2022-11-11T15:50:23.948Z,2.97
2022-11-11T15:53:12.418Z,2.72
2022-11-11T15:56:00.650Z,3.85
2022-11-11T15:58:46.125Z,7.70
2022-11-11T16:01:31.919Z,5.70
2022-11-11T16:04:54.073Z,4.00
2022-11-11T16:07:32.117Z,3.10
2022-11-11T16:10:29.777Z,5.53
2022-11-11T16:13:14.977Z,3.28
2022-11-11T16:16:09.324Z,4.72
2022-11-11T16:19:03.581Z,3.45
2022-11-11T16:21:57.927Z,21.48
2022-11-11T16:24:45.873Z,6.65
2022-11-11T16:27:33.422Z,7.60
2022-11-11T16:30:24.793Z,13.27
2022-11-11T16:33:40.735Z,8.02
2022-11-11T16:36:26.666Z,5.38
2022-11-11T16:39:19.338Z,9.80
2022-11-11T16:42:08.207Z,3.72
2022-11-11T16:45:01.295Z,5.13
2022-11-11T16:47:49.247Z,3.97
2022-11-11T16:50:53.219Z,5.93
2022-11-11T16:53:46.833Z,3.25
2022-11-11T16:56:33.940Z,2.53
2022-11-11T16:59:34.326Z,4.38
2022-11-11T17:02:22.467Z,3.20
2022-11-11T17:05:08.630Z,2.67
2022-11-11T17:07:54.493Z,5.28
2022-11-11T17:10:40.717Z,2.40
2022-11-11T17:13:27.376Z,5.38
2022-11-11T17:16:14.110Z,3.25
2022-11-11T17:19:03.991Z,3.90
2022-11-11T17:24:34.762Z,5.38
2022-11-11T17:27:20.006Z,8.70
2022-11-11T17:30:06.368Z,2.70
2022-11-11T17:32:51.839Z,2.50
2022-11-11T17:35:37.293Z,3.53
2022-11-11T17:38:22.621Z,2.25
2022-11-11T17:41:08.175Z,1.77
2022-11-11T17:43:53.888Z,4.18
2022-11-11T17:46:39.209Z,3.72
2022-11-11T17:49:50.021Z,2.65
2022-11-11T17:52:30.404Z,4.45
2022-11-11T17:55:16.026Z,6.05
2022-11-11T17:58:01.748Z,2.20
2022-11-11T18:00:47.023Z,2.20
2022-11-11T18:03:32.394Z,2.88
2022-11-11T18:06:17.892Z,3.30
2022-11-11T18:09:03.206Z,6.07
2022-11-11T18:11:48.590Z,5.75
2022-11-11T18:14:33.929Z,1.63
2022-11-11T18:17:19.594Z,3.42
2022-11-11T18:20:05.218Z,2.00
2022-11-11T18:22:56.864Z,2.25
2022-11-11T18:25:42.886Z,2.58
2022-11-11T18:28:33.514Z,4.07
2022-11-11T18:31:18.902Z,3.63
2022-11-11T18:34:04.518Z,4.53
2022-11-11T18:36:52.412Z,4.60
2022-11-11T18:39:37.854Z,4.68
2022-11-11T18:42:23.160Z,5.53
2022-11-11T18:45:08.992Z,6.15
2022-11-11T18:47:54.453Z,18.13
2022-11-11T18:50:39.781Z,12.13
2022-11-11T18:53:25.758Z,57.10
2022-11-11T18:56:20.173Z,17.52
2022-11-11T18:59:05.634Z,4.10
2022-11-11T19:01:54.747Z,6.75
2022-11-11T19:04:41.031Z,3.88
2022-11-11T19:07:26.460Z,7.05
2022-11-11T19:10:11.861Z,2.33
2022-11-11T19:12:56.874Z,0.98
2022-11-11T19:15:42.102Z,2.92
2022-11-11T19:18:27.464Z,1.02
2022-11-11T19:21:17.399Z,2.53
2022-11-11T19:24:03.715Z,1.30
2022-11-11T19:26:51.062Z,3.55
2022-11-11T19:29:36.225Z,2.40
2022-11-11T19:32:21.585Z,4.95
2022-11-11T19:35:07.400Z,3.25
2022-11-11T19:37:52.511Z,1.58
2022-11-11T19:40:38.009Z,1.88
2022-11-11T19:43:24.869Z,2.05
2022-11-11T19:46:15.731Z,3.40
2022-11-11T19:49:00.957Z,5.13
2022-11-11T19:51:46.294Z,4.15
2022-11-11T19:54:31.686Z,4.32
2022-11-11T19:57:17.066Z,3.58
2022-11-11T20:00:02.476Z,2.10
2022-11-11T20:02:47.789Z,3.22
2022-11-11T20:05:37.376Z,3.70
2022-11-11T20:08:22.536Z,3.58
2022-11-11T20:11:09.384Z,5.35
2022-11-11T20:13:56.011Z,6.30
2022-11-11T20:16:41.274Z,3.78
2022-11-11T20:19:26.483Z,3.05
2022-11-11T20:22:12.082Z,3.00
2022-11-11T20:24:57.647Z,3.55
2022-11-11T20:27:43.233Z,2.33
2022-11-11T20:30:28.601Z,2.45
2022-11-11T20:33:14.346Z,3.28
2022-11-11T20:36:04.530Z,4.72
2022-11-11T20:38:50.107Z,11.02
2022-11-11T20:41:36.211Z,4.57
2022-11-11T20:44:21.862Z,11.27
2022-11-11T20:47:08.562Z,6.22
2022-11-11T20:49:54.209Z,4.40
2022-11-11T20:52:39.522Z,5.22
2022-11-11T20:55:24.846Z,3.22
2022-11-11T20:58:10.223Z,3.03
2022-11-11T21:01:01.633Z,3.95
2022-11-11T21:03:47.021Z,2.45
2022-11-11T21:06:32.636Z,4.82
2022-11-11T21:09:18.107Z,4.53
2022-11-11T21:12:03.916Z,4.13
2022-11-11T21:14:49.247Z,3.05
2022-11-11T21:17:34.798Z,4.55
2022-11-11T21:20:20.570Z,3.83
2022-11-11T21:23:05.829Z,4.40
2022-11-11T21:25:51.161Z,4.72
2022-11-11T21:28:37.958Z,5.65
2022-11-11T21:31:26.741Z,6.05
2022-11-11T21:34:13.003Z,3.92
2022-11-11T21:36:58.692Z,8.10
2022-11-11T21:39:43.997Z,3.88
2022-11-11T21:42:29.414Z,4.25
2022-11-11T21:45:14.805Z,2.92
2022-11-11T21:48:00.221Z,5.05
2022-11-11T21:50:45.610Z,4.13
2022-11-11T21:53:31.099Z,4.22
2022-11-11T21:56:16.687Z,3.85
2022-11-11T21:59:04.701Z,5.88
2022-11-11T22:01:50.056Z,4.50
2022-11-11T22:04:35.484Z,5.30
2022-11-11T22:07:21.530Z,6.13
2022-11-11T22:10:07.363Z,6.47
2022-11-11T22:12:52.489Z,6.05
2022-11-11T22:15:38.584Z,6.50
2022-11-11T22:18:23.986Z,5.43
2022-11-11T22:21:12.430Z,3.97
2022-11-11T22:24:00.372Z,4.30
2022-11-11T22:26:45.887Z,5.65
2022-11-11T22:29:31.553Z,4.93
2022-11-11T22:32:16.856Z,4.57
2022-11-11T22:35:02.200Z,5.10
2022-11-11T22:37:47.481Z,5.60
2022-11-11T22:40:32.872Z,4.72
2022-11-11T22:43:38.115Z,5.22
2022-11-11T22:46:24.945Z,5.88
2022-11-11T22:49:12.241Z,5.60
2022-11-11T22:51:57.335Z,4.25
2022-11-11T22:54:42.726Z,3.75
2022-11-11T22:57:30.826Z,4.35
2022-11-11T23:00:16.626Z,5.75
2022-11-11T23:03:02.654Z,4.88
2022-11-11T23:05:47.769Z,3.70
2022-11-11T23:08:33.165Z,5.32
2022-11-11T23:11:24.099Z,4.80
2022-11-11T23:14:15.767Z,5.55
2022-11-11T23:17:00.761Z,4.75
2022-11-11T23:19:45.886Z,3.63
2022-11-11T23:22:31.426Z,4.43
2022-11-11T23:25:16.780Z,4.32
2022-11-11T23:28:02.060Z,3.45
2022-11-11T23:30:48.005Z,3.72
2022-11-11T23:33:35.068Z,3.42
2022-11-11T23:36:23.229Z,4.53
2022-11-11T23:39:08.551Z,3.97
2022-11-11T23:41:53.847Z,4.65
2022-11-11T23:44:39.054Z,4.43
2022-11-11T23:47:24.494Z,5.05
2022-11-11T23:50:10.055Z,3.53
2022-11-11T23:52:55.164Z,5.18
2022-11-11T23:55:40.740Z,3.83
2022-11-11T23:58:26.730Z,3.47
